Aabenraa, Denmark
Current Conditions -  °F | °C
As of 7:50 PM on Friday 21 Nov 2014 (Local Time) from EKSP Reporting Station
Broken Clouds Broken Clouds  
Wind Chill: 36°   Ceiling: 3000
Heat Index: 36°   Visibility: 6mi
Dew Point: 36°   Wind: 1mph
Humidity: 100%   Direction: 50°NE
Pressure: 30.27"   Gusts: NA
Location:  55.04°N, 9.42°E
Report Text: EKSP 211850Z 05001KT 9999 BKN030 02/02 Q1025
Loading
Personal Weather Stations






























Interactive Weather Map New forecast layout! Learn more

10-Day Weather Forecast

Advertisements
Track Severe Weather on mobile